createdAt,value
2018-11-10T00:00:51.886Z,10.00
2018-11-10T00:03:22.427Z,10.00
2018-11-10T00:05:53.026Z,10.00
2018-11-10T00:08:24.920Z,10.10
2018-11-10T00:10:55.579Z,10.00
2018-11-10T00:13:26.886Z,10.00
2018-11-10T00:15:57.379Z,10.00
2018-11-10T00:18:27.699Z,10.00
2018-11-10T00:20:58.119Z,10.00
2018-11-10T00:23:28.619Z,10.00
2018-11-10T00:25:59.067Z,10.00
2018-11-10T00:28:29.326Z,9.90
2018-11-10T00:30:59.744Z,9.90
2018-11-10T00:33:30.311Z,9.90
2018-11-10T00:36:00.482Z,9.90
2018-11-10T00:38:31.180Z,9.90
2018-11-10T00:41:01.295Z,9.90
2018-11-10T00:43:31.375Z,9.90
2018-11-10T00:46:01.435Z,9.90
2018-11-10T00:48:31.447Z,9.80
2018-11-10T00:51:01.875Z,9.80
2018-11-10T00:53:33.416Z,9.80
2018-11-10T00:56:04.055Z,9.90
2018-11-10T00:58:34.355Z,9.80
2018-11-10T01:01:04.724Z,9.80
2018-11-10T01:03:35.183Z,9.80
2018-11-10T01:06:05.426Z,9.80
2018-11-10T01:08:35.663Z,9.80
2018-11-10T01:11:06.083Z,9.70
2018-11-10T01:13:36.383Z,9.70
2018-11-10T01:16:07.184Z,9.70
2018-11-10T01:18:37.264Z,9.70
2018-11-10T01:21:07.644Z,9.70
2018-11-10T01:23:37.882Z,9.70
2018-11-10T01:26:08.602Z,9.70
2018-11-10T01:28:38.502Z,9.70
2018-11-10T01:31:08.622Z,9.70
2018-11-10T01:33:39.701Z,9.70
2018-11-10T01:36:10.122Z,9.70
2018-11-10T01:38:40.242Z,9.70
2018-11-10T01:41:10.561Z,9.70
2018-11-10T01:43:40.671Z,9.70
2018-11-10T01:46:10.742Z,9.70
2018-11-10T01:48:42.522Z,9.70
2018-11-10T01:51:12.899Z,9.70
2018-11-10T01:53:43.458Z,9.70
2018-11-10T01:56:13.881Z,9.60
2018-11-10T01:58:44.020Z,9.60
2018-11-10T02:01:13.995Z,9.60
2018-11-10T02:06:18.055Z,9.60
2018-11-10T02:08:48.134Z,9.60
2018-11-10T02:11:18.214Z,9.60
2018-11-10T02:13:48.335Z,9.60
2018-11-10T02:16:18.496Z,9.60
2018-11-10T02:18:48.734Z,9.60
2018-11-10T02:21:18.834Z,9.60
2018-11-10T02:23:48.835Z,9.60
2018-11-10T02:26:19.015Z,9.60
2018-11-10T02:28:49.317Z,9.60
2018-11-10T02:31:19.484Z,9.60
2018-11-10T02:33:49.901Z,9.60
2018-11-10T02:36:20.015Z,9.60
2018-11-10T02:38:50.046Z,9.50
2018-11-10T02:41:20.039Z,9.50
2018-11-10T02:43:50.534Z,9.60
2018-11-10T02:46:20.633Z,9.60
2018-11-10T02:48:50.634Z,9.60
2018-11-10T02:51:20.573Z,9.50
2018-11-10T02:53:50.894Z,9.40
2018-11-10T02:56:20.938Z,9.40
2018-11-10T02:58:51.094Z,9.40
2018-11-10T03:01:21.315Z,9.40
2018-11-10T03:03:51.540Z,9.30
2018-11-10T03:06:21.822Z,9.30
2018-11-10T03:08:51.899Z,9.30
2018-11-10T03:11:22.079Z,9.30
2018-11-10T03:13:52.240Z,9.30
2018-11-10T03:16:22.441Z,9.30
2018-11-10T03:18:52.680Z,9.30
2018-11-10T03:21:23.380Z,9.30
2018-11-10T03:23:53.420Z,9.30
2018-11-10T03:26:23.420Z,9.30
2018-11-10T03:28:53.823Z,9.30
2018-11-10T03:31:23.920Z,9.30
2018-11-10T03:33:54.120Z,9.30
2018-11-10T03:36:24.450Z,9.30
2018-11-10T03:38:54.886Z,9.30
2018-11-10T03:41:24.964Z,9.30
2018-11-10T03:43:55.323Z,9.30
2018-11-10T03:46:26.402Z,9.40
2018-11-10T03:48:56.966Z,9.40
2018-11-10T03:51:27.103Z,9.40
2018-11-10T03:53:57.285Z,9.40
2018-11-10T03:56:27.211Z,9.40
2018-11-10T03:58:57.303Z,9.30
2018-11-10T04:01:27.674Z,9.30
2018-11-10T04:03:57.835Z,9.30
2018-11-10T04:06:27.994Z,9.30
2018-11-10T04:08:58.074Z,9.30
2018-11-10T04:11:28.133Z,9.20
2018-11-10T04:13:58.253Z,9.30
2018-11-10T04:16:28.493Z,9.30
2018-11-10T04:18:58.694Z,9.30
2018-11-10T04:21:28.634Z,9.30
2018-11-10T04:23:58.774Z,9.30
2018-11-10T04:26:28.761Z,9.30
2018-11-10T04:28:58.980Z,9.30
2018-11-10T04:31:29.100Z,9.20
2018-11-10T04:34:00.682Z,9.10
2018-11-10T04:36:33.140Z,9.10
2018-11-10T04:39:06.161Z,9.10
2018-11-10T04:41:39.400Z,9.10
2018-11-10T04:46:49.418Z,9.10
2018-11-10T04:49:22.359Z,9.10
2018-11-10T04:51:56.618Z,9.10
2018-11-10T04:54:30.997Z,9.10
2018-11-10T04:57:04.481Z,9.10
2018-11-10T04:59:41.618Z,9.20
2018-11-10T05:02:17.081Z,9.20
2018-11-10T05:04:49.882Z,9.20
2018-11-10T05:07:27.414Z,9.20
2018-11-10T05:09:57.501Z,9.20
2018-11-10T05:12:27.640Z,9.20
2018-11-10T05:14:57.759Z,9.20
2018-11-10T05:17:28.059Z,9.20
2018-11-10T05:19:58.239Z,9.20
2018-11-10T05:22:28.339Z,9.20
2018-11-10T05:24:58.580Z,9.30
2018-11-10T05:27:28.739Z,9.20
2018-11-10T05:29:59.521Z,9.20
2018-11-10T05:32:29.580Z,9.20
2018-11-10T05:40:52.581Z,9.10
2018-11-10T05:43:22.419Z,9.00
2018-11-10T05:45:59.589Z,9.10
2018-11-10T05:48:29.299Z,9.10
2018-11-10T05:50:58.800Z,9.10
2018-11-10T05:53:29.200Z,9.10
2018-11-10T05:55:58.823Z,9.10
2018-11-10T05:58:30.059Z,9.20
2018-11-10T06:01:01.158Z,9.20
2018-11-10T06:03:30.918Z,9.20
2018-11-10T06:06:01.102Z,9.20
2018-11-10T06:08:30.918Z,9.20
2018-11-10T06:11:00.618Z,9.20
2018-11-10T06:13:38.358Z,9.20
2018-11-10T06:16:08.550Z,9.20
2018-11-10T06:18:38.234Z,9.20
2018-11-10T06:21:08.318Z,9.20
2018-11-10T06:23:37.978Z,9.20
2018-11-10T06:26:08.509Z,9.30
2018-11-10T06:28:38.458Z,9.30
2018-11-10T06:31:08.619Z,9.30
2018-11-10T06:33:39.638Z,9.30
2018-11-10T06:36:09.706Z,9.20
2018-11-10T06:38:39.778Z,9.20
2018-11-10T06:41:09.712Z,9.20
2018-11-10T06:43:39.659Z,9.20
2018-11-10T06:46:09.598Z,9.20
2018-11-10T06:48:39.838Z,9.30
2018-11-10T06:51:10.218Z,9.30
2018-11-10T06:53:39.958Z,9.30
2018-11-10T06:56:09.816Z,9.30
2018-11-10T06:58:39.494Z,9.30
2018-11-10T07:01:09.441Z,9.30
2018-11-10T07:03:39.438Z,9.30
2018-11-10T07:06:09.017Z,9.30
2018-11-10T07:08:39.176Z,9.30
2018-11-10T07:11:08.780Z,9.40
2018-11-10T07:13:38.576Z,9.40
2018-11-10T07:16:08.436Z,9.40
2018-11-10T07:18:40.736Z,9.40
2018-11-10T07:21:10.498Z,9.40
2018-11-10T07:23:42.396Z,9.50
2018-11-10T07:26:12.096Z,9.50
2018-11-10T07:28:41.757Z,9.50
2018-11-10T07:31:11.676Z,9.50
2018-11-10T07:33:41.909Z,9.60
2018-11-10T07:36:11.896Z,9.60
2018-11-10T07:38:41.956Z,9.60
2018-11-10T07:41:12.477Z,9.60
2018-11-10T07:43:42.318Z,9.60
2018-11-10T07:46:12.296Z,9.60
2018-11-10T07:48:42.018Z,9.60
2018-11-10T07:51:12.204Z,9.70
2018-11-10T07:53:42.257Z,9.70
2018-11-10T07:56:12.097Z,9.80
2018-11-10T07:58:41.696Z,9.80
2018-11-10T08:01:12.375Z,9.80
2018-11-10T08:03:42.357Z,9.80
2018-11-10T08:06:12.616Z,9.90
2018-11-10T08:08:42.276Z,9.90
2018-11-10T08:11:12.399Z,10.00
2018-11-10T08:13:43.175Z,10.00
2018-11-10T08:16:12.725Z,10.00
2018-11-10T08:18:42.633Z,10.10
2018-11-10T08:21:12.855Z,10.10
2018-11-10T08:23:42.536Z,10.10
2018-11-10T08:26:12.257Z,10.10
2018-11-10T08:28:42.296Z,10.10
2018-11-10T08:31:12.133Z,10.20
2018-11-10T08:33:42.159Z,10.20
2018-11-10T08:36:11.755Z,10.30
2018-11-10T08:38:41.459Z,10.30
2018-11-10T08:41:11.176Z,10.30
2018-11-10T08:43:41.137Z,10.40
2018-11-10T08:46:10.976Z,10.40
2018-11-10T08:48:41.416Z,10.50
2018-11-10T08:51:10.859Z,10.70
2018-11-10T08:53:40.496Z,10.70
2018-11-10T08:56:10.079Z,10.80
2018-11-10T08:58:40.057Z,10.90
2018-11-10T09:01:09.817Z,11.10
2018-11-10T09:03:39.933Z,11.30
2018-11-10T09:06:09.754Z,11.50
2018-11-10T09:08:46.536Z,11.50
2018-11-10T09:11:16.477Z,11.50
2018-11-10T09:13:46.296Z,11.50
2018-11-10T09:16:16.179Z,11.50
2018-11-10T09:18:45.953Z,11.50
2018-11-10T09:21:16.440Z,11.40
2018-11-10T09:23:46.053Z,11.40
2018-11-10T09:26:16.448Z,11.30
2018-11-10T09:28:48.309Z,11.30
2018-11-10T09:31:18.312Z,11.30
2018-11-10T09:33:58.447Z,11.20
2018-11-10T09:36:31.604Z,11.10
2018-11-10T09:39:01.635Z,11.10
2018-11-10T09:41:31.356Z,11.10
2018-11-10T09:44:07.112Z,11.00
2018-11-10T09:46:39.740Z,11.10
2018-11-10T09:51:59.484Z,11.00
2018-11-10T09:54:28.879Z,11.10
2018-11-10T09:56:59.101Z,11.00
2018-11-10T09:59:29.573Z,11.00
2018-11-10T10:02:03.347Z,11.00
2018-11-10T10:07:11.620Z,11.00
2018-11-10T10:09:41.684Z,11.10
2018-11-10T10:12:24.467Z,11.00
2018-11-10T10:14:59.660Z,10.90
2018-11-10T10:17:29.696Z,10.90
2018-11-10T10:20:09.021Z,10.80
2018-11-10T10:22:38.378Z,10.80
2018-11-10T10:25:14.599Z,11.00
2018-11-10T10:27:45.710Z,11.10
2018-11-10T10:30:17.300Z,11.10
2018-11-10T10:32:47.752Z,11.20
2018-11-10T10:35:17.594Z,11.20
2018-11-10T10:37:55.006Z,11.20
2018-11-10T10:40:25.310Z,11.30
2018-11-10T10:43:01.653Z,11.30
2018-11-10T10:45:30.984Z,11.30
2018-11-10T10:48:00.449Z,11.30
2018-11-10T10:50:30.059Z,11.20
2018-11-10T10:53:01.000Z,11.30
2018-11-10T10:55:35.131Z,11.30
2018-11-10T10:58:04.723Z,11.20
2018-11-10T11:00:44.555Z,11.20
2018-11-10T11:03:19.274Z,11.30
2018-11-10T11:05:53.618Z,11.30
2018-11-10T11:08:23.100Z,11.30
2018-11-10T11:10:52.440Z,11.40
2018-11-10T11:13:23.939Z,11.40
2018-11-10T11:15:56.453Z,11.40
2018-11-10T11:18:28.041Z,11.50
2018-11-10T11:21:01.481Z,11.50
2018-11-10T11:26:08.821Z,11.50
2018-11-10T11:28:40.258Z,11.40
2018-11-10T11:31:14.080Z,11.30
2018-11-10T11:33:48.499Z,11.30
2018-11-10T11:36:22.057Z,11.20
2018-11-10T11:38:52.777Z,11.20
2018-11-10T11:41:25.502Z,10.90
2018-11-10T11:43:57.959Z,10.80
2018-11-10T11:46:34.999Z,10.70
2018-11-10T12:02:05.292Z,10.70
2018-11-10T12:04:35.571Z,10.80
2018-11-10T12:07:09.983Z,10.90
2018-11-10T12:09:39.502Z,10.90
2018-11-10T12:12:10.478Z,10.90
2018-11-10T12:14:40.435Z,11.10
2018-11-10T12:17:10.177Z,11.10
2018-11-10T12:19:39.877Z,11.20
2018-11-10T12:22:09.500Z,11.40
2018-11-10T12:24:43.235Z,11.50
2018-11-10T12:27:12.907Z,11.60
2018-11-10T12:29:42.367Z,11.60
2018-11-10T12:32:12.104Z,11.60
2018-11-10T12:34:41.659Z,11.60
2018-11-10T12:37:13.639Z,11.70
2018-11-10T12:39:43.479Z,11.80
2018-11-10T12:42:13.076Z,11.90
2018-11-10T12:44:42.856Z,12.00
2018-11-10T12:47:12.675Z,12.00
2018-11-10T12:49:42.557Z,12.10
2018-11-10T12:52:12.574Z,12.00
2018-11-10T12:54:42.314Z,12.00
2018-11-10T12:57:12.074Z,12.00
2018-11-10T12:59:41.775Z,12.00
2018-11-10T13:02:12.625Z,12.00
2018-11-10T13:04:42.297Z,12.10
2018-11-10T13:07:11.877Z,12.20
2018-11-10T13:09:41.416Z,12.20
2018-11-10T13:12:11.103Z,12.30
2018-11-10T13:14:40.676Z,12.40
2018-11-10T13:17:10.827Z,12.50
2018-11-10T13:19:40.856Z,12.50
2018-11-10T13:22:10.816Z,12.50
2018-11-10T13:24:41.102Z,12.50
2018-11-10T13:27:11.053Z,12.40
2018-11-10T13:29:40.636Z,12.50
2018-11-10T13:32:10.637Z,12.50
2018-11-10T13:34:40.797Z,12.50
2018-11-10T13:37:10.517Z,12.50
2018-11-10T13:39:42.617Z,12.50
2018-11-10T13:42:12.440Z,12.50
2018-11-10T13:44:49.078Z,12.40
2018-11-10T13:47:18.657Z,12.40
2018-11-10T13:52:15.143Z,12.30
2018-11-10T13:54:44.856Z,12.30
2018-11-10T13:57:15.232Z,12.20
2018-11-10T13:59:45.059Z,12.20
2018-11-10T14:02:48.375Z,12.30
2018-11-10T14:05:18.638Z,12.20
2018-11-10T14:07:48.736Z,12.20
2018-11-10T14:10:18.670Z,12.20
2018-11-10T14:12:48.766Z,12.20
2018-11-10T14:15:20.736Z,12.20
2018-11-10T14:17:50.536Z,12.20
2018-11-10T14:20:20.321Z,12.10
2018-11-10T14:22:50.098Z,12.00
2018-11-10T14:25:22.055Z,12.00
2018-11-10T14:27:51.796Z,11.90
2018-11-10T14:30:21.816Z,11.90
2018-11-10T14:32:51.315Z,11.80
2018-11-10T14:35:21.788Z,11.80
2018-11-10T14:37:51.725Z,11.80
2018-11-10T14:40:21.536Z,11.70
2018-11-10T14:42:52.919Z,11.70
2018-11-10T14:45:22.915Z,11.60
2018-11-10T14:47:52.655Z,11.60
2018-11-10T14:50:30.319Z,11.60
2018-11-10T14:53:00.878Z,11.50
2018-11-10T14:55:36.415Z,11.50
2018-11-10T14:58:06.575Z,11.50
2018-11-10T15:00:36.235Z,11.50
2018-11-10T15:03:05.975Z,11.50
2018-11-10T15:05:36.194Z,11.50
2018-11-10T15:08:06.396Z,11.40
2018-11-10T15:10:36.295Z,11.40
2018-11-10T15:13:06.844Z,11.30
2018-11-10T15:15:36.435Z,11.30
2018-11-10T15:18:10.090Z,11.20
2018-11-10T15:20:39.875Z,11.10
2018-11-10T15:23:14.375Z,11.10
2018-11-10T15:25:44.255Z,11.10
2018-11-10T15:28:13.894Z,11.00
2018-11-10T15:30:43.915Z,11.00
2018-11-10T15:33:13.735Z,11.00
2018-11-10T15:35:43.835Z,10.90
2018-11-10T15:38:13.955Z,11.00
2018-11-10T15:40:43.995Z,11.00
2018-11-10T15:43:13.695Z,10.90
2018-11-10T15:45:45.935Z,10.90
2018-11-10T15:48:15.456Z,10.90
2018-11-10T15:50:47.395Z,10.70
2018-11-10T15:53:17.576Z,10.60
2018-11-10T15:55:47.655Z,10.50
2018-11-10T15:58:18.194Z,10.40
2018-11-10T16:00:47.995Z,10.40
2018-11-10T16:03:18.474Z,10.30
2018-11-10T16:05:48.214Z,10.30
2018-11-10T16:08:18.055Z,10.20
2018-11-10T16:10:47.814Z,10.20
2018-11-10T16:13:17.474Z,10.10
2018-11-10T16:15:47.294Z,10.10
2018-11-10T16:18:17.294Z,10.00
2018-11-10T16:20:47.756Z,9.90
2018-11-10T16:23:17.514Z,9.90
2018-11-10T16:25:47.274Z,9.80
2018-11-10T16:28:17.054Z,9.80
2018-11-10T16:30:46.854Z,9.70
2018-11-10T16:33:25.273Z,9.70
2018-11-10T16:35:54.894Z,9.70
2018-11-10T16:38:25.014Z,9.70
2018-11-10T16:40:55.270Z,9.60
2018-11-10T16:43:25.172Z,9.60
2018-11-10T16:45:55.017Z,9.60
2018-11-10T16:48:25.558Z,9.60
2018-11-10T16:50:55.438Z,9.50
2018-11-10T16:53:25.677Z,9.50
2018-11-10T16:55:55.297Z,9.40
2018-11-10T16:58:24.875Z,9.30
2018-11-10T17:00:55.279Z,9.30
2018-11-10T17:03:24.860Z,9.30
2018-11-10T17:05:57.841Z,9.30
2018-11-10T17:08:27.642Z,9.30
2018-11-10T17:10:57.654Z,9.30
2018-11-10T17:13:27.755Z,9.30
2018-11-10T17:15:57.855Z,9.30
2018-11-10T17:18:28.294Z,9.30
2018-11-10T17:20:58.449Z,9.30
2018-11-10T17:23:28.234Z,9.30
2018-11-10T17:25:57.722Z,9.30
2018-11-10T17:28:28.595Z,9.20
2018-11-10T17:30:58.314Z,9.20
2018-11-10T17:33:28.135Z,9.20
2018-11-10T17:35:58.233Z,9.10
2018-11-10T17:38:27.974Z,9.10
2018-11-10T17:40:57.754Z,9.10
2018-11-10T17:43:27.698Z,9.10
2018-11-10T17:45:57.574Z,9.00
2018-11-10T17:48:27.539Z,9.00
2018-11-10T17:50:57.416Z,9.00
2018-11-10T17:53:27.176Z,9.00
2018-11-10T17:55:56.938Z,9.00
2018-11-10T17:58:27.853Z,8.90
2018-11-10T18:00:57.783Z,8.90
2018-11-10T18:03:32.241Z,8.80
2018-11-10T18:06:02.078Z,8.80
2018-11-10T18:08:32.116Z,8.80
2018-11-10T18:11:01.839Z,8.70
2018-11-10T18:13:34.757Z,8.80
2018-11-10T18:16:04.418Z,8.80
2018-11-10T18:18:34.261Z,8.80
2018-11-10T18:21:04.219Z,8.90
2018-11-10T18:23:34.498Z,8.90
2018-11-10T18:26:04.478Z,8.80
2018-11-10T18:28:34.476Z,8.80
2018-11-10T18:31:04.477Z,8.70
2018-11-10T18:33:34.217Z,8.70
2018-11-10T18:36:04.137Z,8.70
2018-11-10T18:38:33.945Z,8.60
2018-11-10T18:41:05.478Z,8.60
2018-11-10T18:43:35.497Z,8.60
2018-11-10T18:46:06.258Z,8.50
2018-11-10T18:48:36.638Z,8.40
2018-11-10T18:51:06.698Z,8.40
2018-11-10T18:53:36.618Z,8.30
2018-11-10T18:56:06.137Z,8.30
2018-11-10T18:58:43.537Z,8.30
2018-11-10T19:01:13.457Z,8.30
2018-11-10T19:03:43.119Z,8.20
2018-11-10T19:06:19.820Z,8.20
2018-11-10T19:08:49.699Z,8.20
2018-11-10T19:11:19.661Z,8.20
2018-11-10T19:13:49.901Z,8.20
2018-11-10T19:16:19.663Z,8.20
2018-11-10T19:18:49.943Z,8.10
2018-11-10T19:21:19.718Z,8.10
2018-11-10T19:23:49.459Z,8.10
2018-11-10T19:26:19.078Z,8.00
2018-11-10T19:28:48.859Z,8.00
2018-11-10T19:31:18.540Z,8.00
2018-11-10T19:33:49.260Z,8.00
2018-11-10T19:36:19.040Z,8.00
2018-11-10T19:38:53.299Z,8.10
2018-11-10T19:41:23.339Z,8.10
2018-11-10T19:43:53.219Z,8.10
2018-11-10T19:46:22.820Z,8.10
2018-11-10T19:48:59.281Z,8.10
2018-11-10T19:51:29.035Z,8.10
2018-11-10T19:53:59.200Z,8.00
2018-11-10T19:56:29.399Z,8.00
2018-11-10T19:58:59.059Z,8.00
2018-11-10T20:01:28.717Z,8.00
2018-11-10T20:03:58.853Z,7.90
2018-11-10T20:06:29.257Z,7.90
2018-11-10T20:08:59.118Z,7.90
2018-11-10T20:11:28.900Z,7.80
2018-11-10T20:13:58.762Z,7.80
2018-11-10T20:16:28.517Z,7.80
2018-11-10T20:18:58.617Z,7.70
2018-11-10T20:21:28.516Z,7.70
2018-11-10T20:23:58.178Z,7.70
2018-11-10T20:26:27.981Z,7.80
2018-11-10T20:28:57.357Z,7.90
2018-11-10T20:31:27.117Z,7.90
2018-11-10T20:33:57.317Z,7.90
2018-11-10T20:36:27.039Z,7.90
2018-11-10T20:38:57.230Z,7.90
2018-11-10T20:41:27.577Z,7.90
2018-11-10T20:43:57.297Z,7.90
2018-11-10T20:46:28.778Z,7.70
2018-11-10T20:48:58.736Z,7.60
2018-11-10T20:51:29.615Z,7.40
2018-11-10T20:53:59.736Z,7.40
2018-11-10T20:56:29.897Z,7.40
2018-11-10T20:59:00.321Z,7.50
2018-11-10T21:01:30.016Z,7.40
2018-11-10T21:03:59.720Z,7.30
2018-11-10T21:06:30.218Z,7.20
2018-11-10T21:08:59.979Z,7.20
2018-11-10T21:11:29.904Z,7.20
2018-11-10T21:13:59.879Z,7.10
2018-11-10T21:16:29.816Z,7.00
2018-11-10T21:18:59.876Z,7.00
2018-11-10T21:21:29.795Z,6.90
2018-11-10T21:23:59.295Z,6.90
2018-11-10T21:26:29.142Z,6.90
2018-11-10T21:28:58.798Z,6.90
2018-11-10T21:31:29.123Z,6.90
2018-11-10T21:36:32.782Z,7.00
2018-11-10T21:39:02.882Z,7.10
2018-11-10T21:41:32.722Z,7.10
2018-11-10T21:44:02.383Z,7.10
2018-11-10T21:46:32.002Z,7.10
2018-11-10T21:49:02.889Z,7.00
2018-11-10T21:51:32.503Z,7.00
2018-11-10T21:54:02.322Z,7.00
2018-11-10T21:56:31.942Z,7.00
2018-11-10T21:59:06.083Z,7.00
2018-11-10T22:01:36.040Z,7.10
2018-11-10T22:04:09.887Z,7.20
2018-11-10T22:06:39.937Z,7.10
2018-11-10T22:09:12.424Z,7.00
2018-11-10T22:11:43.917Z,7.00
2018-11-10T22:14:13.842Z,7.00
2018-11-10T22:16:43.399Z,7.00
2018-11-10T22:19:13.525Z,6.90
2018-11-10T22:21:43.457Z,6.90
2018-11-10T22:24:13.265Z,7.00
2018-11-10T22:26:42.997Z,7.00
2018-11-10T22:29:13.092Z,7.00
2018-11-10T22:31:42.719Z,7.10
2018-11-10T22:34:12.297Z,7.00
2018-11-10T22:36:45.518Z,7.00
2018-11-10T22:39:15.336Z,6.90
2018-11-10T22:41:52.195Z,6.80
2018-11-10T22:44:21.956Z,6.80
2018-11-10T22:46:52.655Z,6.80
2018-11-10T22:49:22.355Z,6.80
2018-11-10T22:51:52.176Z,6.70
2018-11-10T22:54:22.068Z,6.70
2018-11-10T22:56:51.435Z,6.70
2018-11-10T22:59:20.987Z,6.70
2018-11-10T23:01:51.037Z,6.70
2018-11-10T23:04:20.905Z,6.80
2018-11-10T23:06:50.424Z,6.90
2018-11-10T23:09:20.456Z,6.90
2018-11-10T23:11:54.415Z,6.80
2018-11-10T23:14:23.877Z,6.80
2018-11-10T23:16:55.001Z,6.70
2018-11-10T23:19:24.879Z,6.70
2018-11-10T23:22:00.577Z,6.70
2018-11-10T23:24:30.396Z,6.80
2018-11-10T23:27:00.220Z,6.80
2018-11-10T23:29:29.999Z,6.90
2018-11-10T23:32:06.160Z,6.90
2018-11-10T23:34:39.930Z,6.90
2018-11-10T23:37:09.564Z,7.00
2018-11-10T23:39:39.279Z,6.90
2018-11-10T23:42:08.948Z,6.90
2018-11-10T23:44:45.739Z,6.80
2018-11-10T23:47:15.679Z,6.90
2018-11-10T23:49:45.745Z,7.00
2018-11-10T23:52:15.239Z,7.10
2018-11-10T23:54:45.159Z,7.10
2018-11-10T23:57:14.698Z,7.00
2018-11-10T23:59:44.777Z,6.90
